Terminal Aerodrome Forecast
Issued by NWS

Home | Current Version | Previous Version | Text Only | Print | Product List | Glossary On
Versions: 1 2 3 4 5 6 7 8 9 10 11 12 13 14 15 16 17
646
FTUS43 KGRR 272336
TAFMKG
TAF
KMKG 272336Z 2800/2824 21011KT P6SM SKC
     FM280600 17009KT P6SM SKC
     FM281400 18014KT P6SM SCT050 BKN120
     FM281600 18016G26KT P6SM BKN050 OVC120
     FM282100 18014G24KT P6SM VCTS BKN060CB BKN120=

USA.gov is the U.S. government's official web portal to all federal, state and local government web resources and services.